Time;durP1;ratioP1;P1;durP2;ratioP2;P2;SDS_P1;SDS_P2;PMS_P1;PMS_P2;Temp;Humidity;BMP_temperature;BMP_pressure;BME280_temperature;BME280_humidity;BME280_pressure;Samples;Min_cycle;Max_cycle;Signal;HPM_P1;HPM_P2
2023/02/01 08:21:08;;;;;;;7.13;3.73;;;2.20;99.90;;;;;;5134214;27;20278;-79
2023/02/01 08:31:15;;;;;;;4.40;3.17;;;2.20;99.90;;;;;;5135181;27;20281;-80
2023/02/01 08:38:56;;;;;;;4.73;3.57;;;2.30;99.90;;;;;;5135243;27;20279;-80
2023/02/01 08:45:11;;;;;;;5.27;4.23;;;2.30;99.90;;;;;;5136052;27;20606;-83
2023/02/01 08:52:38;;;;;;;6.83;4.63;;;2.30;99.90;;;;;;5134752;27;20287;-82
2023/02/01 08:59:28;;;;;;;6.23;4.33;;;2.30;99.90;;;;;;5114929;27;20585;-81
2023/02/01 09:04:26;;;;;;;6.43;3.77;;;2.40;99.90;;;;;;5136868;27;20271;-81
2023/02/01 09:08:57;;;;;;;4.37;3.70;;;2.40;99.90;;;;;;5136969;27;20275;-81
2023/02/01 09:12:35;;;;;;;6.33;4.07;;;2.40;99.90;;;;;;5134900;27;20291;-82
2023/02/01 09:15:02;;;;;;;6.03;4.53;;;2.50;99.90;;;;;;5136223;28;20243;-82
2023/02/01 09:17:29;;;;;;;6.23;4.23;;;2.50;99.90;;;;;;5134882;28;20175;-79
2023/02/01 09:19:55;;;;;;;6.90;3.20;;;2.60;99.90;;;;;;5135969;28;20179;-79
2023/02/01 09:22:21;;;;;;;5.07;4.13;;;2.60;99.90;;;;;;5135151;27;20612;-79
2023/02/01 09:24:47;;;;;;;5.40;4.47;;;2.60;99.90;;;;;;5135853;28;20661;-81
2023/02/01 09:27:12;;;;;;;5.50;4.10;;;2.60;99.90;;;;;;5135112;28;20172;-81
2023/02/01 09:29:38;;;;;;;3.17;2.87;;;2.60;99.90;;;;;;5136012;27;20191;-81
2023/02/01 09:32:04;;;;;;;5.30;3.63;;;2.60;99.90;;;;;;5137624;28;20214;-80
2023/02/01 09:34:30;;;;;;;6.63;4.80;;;2.60;99.90;;;;;;5138118;27;20250;-82
2023/02/01 09:36:56;;;;;;;5.00;3.50;;;2.60;99.90;;;;;;5134310;28;20961;-80
2023/02/01 09:39:22;;;;;;;6.70;4.80;;;2.60;99.90;;;;;;5137339;28;20268;-82
2023/02/01 09:42:01;;;;;;;5.30;4.10;;;2.60;99.90;;;;;;5137809;28;20171;-83
2023/02/01 09:44:42;;;;;;;6.63;5.20;;;2.60;99.90;;;;;;5137026;28;20182;-80
2023/02/01 09:47:17;;;;;;;8.17;4.90;;;2.70;99.90;;;;;;5135714;27;20193;-83
2023/02/01 09:50:01;;;;;;;6.67;3.87;;;2.80;99.90;;;;;;5135045;27;20210;-80
2023/02/01 09:52:53;;;;;;;4.27;3.80;;;2.80;99.90;;;;;;5132816;28;20681;-80
2023/02/01 09:55:41;;;;;;;6.03;3.90;;;2.80;99.90;;;;;;5128926;27;20208;-82
2023/02/01 09:58:27;;;;;;;4.40;3.97;;;2.80;99.90;;;;;;5124259;28;20207;-82
2023/02/01 10:00:59;;;;;;;7.67;5.03;;;2.90;99.90;;;;;;5134219;28;20239;-80
2023/02/01 10:03:29;;;;;;;5.43;4.33;;;3.00;99.90;;;;;;5133328;28;20192;-82
2023/02/01 10:06:25;;;;;;;5.43;3.97;;;3.10;99.90;;;;;;5139613;27;20180;-83
2023/02/01 10:09:00;;;;;;;5.90;5.00;;;3.00;99.90;;;;;;5134765;28;20177;-81
2023/02/01 10:11:58;;;;;;;6.50;4.57;;;3.10;99.90;;;;;;5135081;28;20219;-82
2023/02/01 10:14:25;;;;;;;4.97;4.03;;;3.20;99.90;;;;;;5136022;28;20179;-80
2023/02/01 10:17:02;;;;;;;5.87;3.53;;;3.20;99.90;;;;;;5140172;28;20177;-81
2023/02/01 10:19:39;;;;;;;6.77;4.33;;;3.20;99.90;;;;;;5133253;28;20178;-82
2023/02/01 10:22:10;;;;;;;4.93;3.70;;;3.30;99.90;;;;;;5129467;27;20194;-80
2023/02/01 10:24:52;;;;;;;5.53;4.10;;;3.40;99.90;;;;;;5117995;28;20242;-81
2023/02/01 10:27:22;;;;;;;6.13;4.17;;;3.40;99.90;;;;;;5117922;28;20173;-83
2023/02/01 10:30:00;;;;;;;4.17;3.47;;;3.40;99.90;;;;;;5119042;28;20271;-81
2023/02/01 10:32:32;;;;;;;3.27;2.63;;;3.30;99.90;;;;;;5117921;28;20217;-82
2023/02/01 10:35:10;;;;;;;7.23;3.77;;;3.20;99.90;;;;;;5119878;28;20189;-82
2023/02/01 10:37:36;;;;;;;3.77;3.37;;;3.20;99.90;;;;;;5120355;28;20164;-81
2023/02/01 10:40:26;;;;;;;4.67;3.53;;;3.50;99.90;;;;;;5121300;28;20175;-82
2023/02/01 10:42:58;;;;;;;4.30;3.17;;;3.70;99.90;;;;;;5118758;28;20203;-81
2023/02/01 10:45:27;;;;;;;9.93;5.87;;;3.60;99.90;;;;;;5119287;28;20161;-80
2023/02/01 10:47:56;;;;;;;6.13;4.30;;;3.50;99.90;;;;;;5121712;28;20166;-82
2023/02/01 10:50:45;;;;;;;4.90;3.87;;;3.40;99.90;;;;;;5118524;28;20197;-80
2023/02/01 10:53:23;;;;;;;5.37;4.20;;;3.50;99.90;;;;;;5117666;28;20203;-80
2023/02/01 10:55:54;;;;;;;3.57;3.07;;;3.60;99.90;;;;;;5120120;28;20172;-80
2023/02/01 10:58:25;;;;;;;4.87;3.37;;;3.70;99.90;;;;;;5122180;28;20252;-81
2023/02/01 11:01:08;;;;;;;3.33;2.70;;;3.90;99.90;;;;;;5120023;28;20162;-80
2023/02/01 11:04:00;;;;;;;11.73;6.13;;;4.10;99.90;;;;;;5118588;28;20205;-82
2023/02/01 11:06:33;;;;;;;19.83;9.17;;;3.90;99.90;;;;;;5110405;28;20275;-80
2023/02/01 11:09:08;;;;;;;18.67;7.87;;;3.80;99.90;;;;;;5118956;28;20171;-81
2023/02/01 11:11:54;;;;;;;6.03;3.63;;;3.90;99.90;;;;;;5120063;28;20266;-82
2023/02/01 11:14:38;;;;;;;11.07;5.20;;;3.90;99.90;;;;;;5121813;28;20164;-82
2023/02/01 11:17:23;;;;;;;15.13;6.90;;;3.80;99.90;;;;;;5118122;28;20180;-81
2023/02/01 11:20:05;;;;;;;6.73;4.20;;;3.80;99.90;;;;;;5118707;28;20155;-80
2023/02/01 11:22:31;;;;;;;11.63;6.70;;;3.80;99.90;;;;;;5116724;28;20560;-80
2023/02/01 11:24:58;;;;;;;2.93;2.50;;;3.90;99.90;;;;;;5121184;28;20216;-81
2023/02/01 11:27:25;;;;;;;6.60;3.57;;;3.80;99.90;;;;;;5119934;28;20271;-81
2023/02/01 11:29:54;;;;;;;3.77;2.90;;;3.80;99.90;;;;;;5117788;28;20184;-83
2023/02/01 11:32:22;;;;;;;4.90;2.63;;;3.90;99.90;;;;;;5116832;28;20264;-81
2023/02/01 11:34:53;;;;;;;4.10;2.17;;;4.00;99.90;;;;;;5115793;28;20933;-80
2023/02/01 11:37:23;;;;;;;3.57;2.60;;;4.10;99.90;;;;;;5118542;28;20410;-83
2023/02/01 11:40:00;;;;;;;3.87;2.67;;;4.20;99.90;;;;;;5120030;28;20609;-81
2023/02/01 11:42:28;;;;;;;3.00;2.53;;;4.10;99.90;;;;;;5119156;28;21038;-81
2023/02/01 11:45:24;;;;;;;5.30;3.10;;;4.00;99.90;;;;;;5119227;28;20221;-81
2023/02/01 11:47:52;;;;;;;8.60;4.50;;;4.20;99.90;;;;;;5119837;28;20173;-82
2023/02/01 11:50:28;;;;;;;7.73;4.10;;;4.30;99.90;;;;;;5118355;28;20232;-82
2023/02/01 11:53:14;;;;;;;9.23;4.90;;;4.40;99.90;;;;;;5118630;28;20203;-81
2023/02/01 11:56:08;;;;;;;12.87;7.10;;;4.60;99.90;;;;;;5117323;28;20187;-80
2023/02/01 11:59:03;;;;;;;3.77;2.77;;;4.80;99.90;;;;;;5120364;28;20156;-82
2023/02/01 12:01:51;;;;;;;5.23;2.80;;;5.00;99.90;;;;;;5117728;28;20180;-81
2023/02/01 12:04:41;;;;;;;5.20;3.03;;;5.10;99.90;;;;;;5116882;28;20172;-80
2023/02/01 12:07:34;;;;;;;5.40;3.87;;;4.90;99.90;;;;;;5117878;28;20184;-82
2023/02/01 12:10:01;;;;;;;6.47;4.07;;;4.60;99.90;;;;;;5117121;28;20243;-82
2023/02/01 12:13:02;;;;;;;13.40;6.00;;;4.30;99.90;;;;;;5119332;28;20212;-83
2023/02/01 12:15:55;;;;;;;8.27;4.50;;;4.10;99.90;;;;;;5086270;28;20191;-82
2023/02/01 12:18:45;;;;;;;10.47;4.73;;;4.10;99.90;;;;;;5117013;28;20175;-82
2023/02/01 12:21:23;;;;;;;4.87;2.43;;;4.10;99.90;;;;;;5117422;28;20421;-83
2023/02/01 12:24:09;;;;;;;7.40;3.97;;;4.00;99.90;;;;;;5119724;28;20195;-81
2023/02/01 12:26:54;;;;;;;7.67;4.93;;;3.90;99.90;;;;;;5119371;28;20175;-82
2023/02/01 12:29:33;;;;;;;2.87;2.20;;;4.00;99.90;;;;;;5117086;28;20171;-82
2023/02/01 12:32:07;;;;;;;3.70;2.60;;;4.00;99.90;;;;;;5118286;28;20850;-83
2023/02/01 12:34:42;;;;;;;5.10;2.07;;;4.00;99.90;;;;;;5120065;28;20175;-84
2023/02/01 12:37:28;;;;;;;4.40;2.80;;;3.90;99.90;;;;;;5116153;28;20167;-81
2023/02/01 12:40:12;;;;;;;5.13;2.40;;;4.00;99.90;;;;;;5119334;28;20183;-81
2023/02/01 12:43:21;;;;;;;2.40;2.10;;;4.30;99.90;;;;;;5117290;28;20191;-80
2023/02/01 12:45:55;;;;;;;2.33;1.90;;;4.40;99.90;;;;;;5119434;28;20183;-80
2023/02/01 12:48:35;;;;;;;3.33;2.63;;;4.30;99.90;;;;;;5118440;28;20166;-82
2023/02/01 12:51:14;;;;;;;3.13;2.47;;;4.20;99.90;;;;;;5117766;28;20188;-80
2023/02/01 12:53:49;;;;;;;4.47;2.20;;;4.10;99.90;;;;;;5117449;28;20679;-80
2023/02/01 12:56:43;;;;;;;4.40;2.47;;;3.90;99.90;;;;;;5119120;28;20176;-81
2023/02/01 12:59:17;;;;;;;4.10;2.23;;;3.90;99.90;;;;;;5108453;28;20183;-80
2023/02/01 13:01:51;;;;;;;3.07;2.50;;;3.80;99.90;;;;;;5118186;28;20471;-82
2023/02/01 13:04:25;;;;;;;3.87;2.43;;;3.80;99.90;;;;;;5121114;28;20426;-82
2023/02/01 13:07:14;;;;;;;3.67;2.60;;;3.70;99.90;;;;;;5118183;28;20404;-81
2023/02/01 13:09:59;;;;;;;3.87;2.77;;;3.80;99.90;;;;;;5117686;28;20252;-81
2023/02/01 13:12:37;;;;;;;6.97;3.20;;;3.80;99.90;;;;;;5118237;28;20283;-83
2023/02/01 13:15:32;;;;;;;4.27;2.87;;;3.70;99.90;;;;;;5117593;28;20214;-81
2023/02/01 13:18:02;;;;;;;4.73;2.73;;;3.70;99.90;;;;;;5112794;28;20192;-81
2023/02/01 13:20:36;;;;;;;4.43;2.90;;;3.70;99.90;;;;;;5117546;28;20152;-82
2023/02/01 13:23:05;;;;;;;3.73;2.90;;;3.60;99.90;;;;;;5117547;28;20193;-83
2023/02/01 13:26:03;;;;;;;3.97;2.83;;;3.60;99.90;;;;;;5118158;28;20244;-83
2023/02/01 13:28:49;;;;;;;4.27;3.33;;;3.50;99.90;;;;;;5084914;28;20190;-82
2023/02/01 13:31:27;;;;;;;6.67;4.67;;;3.60;99.90;;;;;;5119759;28;20293;-82
2023/02/01 13:33:58;;;;;;;4.13;3.73;;;3.60;99.90;;;;;;5118821;28;20217;-83
2023/02/01 13:36:51;;;;;;;5.90;4.50;;;3.60;99.90;;;;;;5117127;28;20246;-82
2023/02/01 13:39:31;;;;;;;2.40;2.20;;;3.60;99.90;;;;;;5120487;28;20166;-83
2023/02/01 13:42:13;;;;;;;5.17;3.40;;;3.60;99.90;;;;;;5118688;28;20212;-83
2023/02/01 13:44:46;;;;;;;3.20;2.80;;;3.50;99.90;;;;;;5119372;28;20301;-82
2023/02/01 13:47:26;;;;;;;3.80;2.97;;;3.50;99.90;;;;;;5117749;28;20169;-82
2023/02/01 13:49:55;;;;;;;5.83;3.47;;;3.50;99.90;;;;;;5120419;28;20172;-83
2023/02/01 13:52:45;;;;;;;6.07;3.00;;;3.50;99.90;;;;;;5129904;28;20216;-81
2023/02/01 13:55:24;;;;;;;9.87;5.50;;;3.60;99.90;;;;;;5120158;28;20158;-83
2023/02/01 13:58:09;;;;;;;6.87;3.13;;;3.50;99.90;;;;;;5121107;28;20542;-83
2023/02/01 14:00:37;;;;;;;6.23;3.30;;;3.50;99.90;;;;;;5122385;28;20252;-82
2023/02/01 14:03:06;;;;;;;6.37;3.70;;;3.40;99.90;;;;;;5121213;28;20254;-83
2023/02/01 14:05:31;;;;;;;6.23;3.40;;;3.40;99.90;;;;;;5125175;28;20192;-83
2023/02/01 14:08:06;;;;;;;4.57;2.83;;;3.40;99.90;;;;;;5120092;28;20188;-81
2023/02/01 14:10:47;;;;;;;5.77;3.07;;;3.30;99.90;;;;;;5119711;28;20184;-80
2023/02/01 14:13:25;;;;;;;6.93;4.17;;;3.30;99.90;;;;;;5120092;28;20193;-79
